sensor_id;sensor_type;location;lat;lon;timestamp;pressure;altitude;pressure_sealevel;temperature;humidity
55486;BME280;71262;-25.924;28.194;2023-09-07T00:01:41;85419.27;;;18.52;46.87
55486;BME280;71262;-25.924;28.194;2023-09-07T00:04:07;85416.34;;;18.61;48.98
55486;BME280;71262;-25.924;28.194;2023-09-07T00:06:32;85417.44;;;18.56;51.19
55486;BME280;71262;-25.924;28.194;2023-09-07T00:08:57;85414.01;;;18.52;52.13
55486;BME280;71262;-25.924;28.194;2023-09-07T00:11:22;85413.89;;;18.81;51.70
55486;BME280;71262;-25.924;28.194;2023-09-07T00:13:47;85412.35;;;18.77;46.95
55486;BME280;71262;-25.924;28.194;2023-09-07T00:16:12;85415.87;;;18.93;49.46
55486;BME280;71262;-25.924;28.194;2023-09-07T00:18:38;85416.84;;;18.54;51.75
55486;BME280;71262;-25.924;28.194;2023-09-07T00:21:03;85422.94;;;18.73;52.50
55486;BME280;71262;-25.924;28.194;2023-09-07T00:23:28;85429.49;;;18.39;53.26
55486;BME280;71262;-25.924;28.194;2023-09-07T00:25:53;85430.05;;;18.53;47.26
55486;BME280;71262;-25.924;28.194;2023-09-07T00:28:18;85433.89;;;18.74;49.69
55486;BME280;71262;-25.924;28.194;2023-09-07T00:30:43;85430.07;;;18.62;52.25
55486;BME280;71262;-25.924;28.194;2023-09-07T00:33:09;85427.83;;;18.31;52.79
55486;BME280;71262;-25.924;28.194;2023-09-07T00:35:33;85421.24;;;18.69;53.08
55486;BME280;71262;-25.924;28.194;2023-09-07T00:37:59;85412.65;;;18.61;47.78
55486;BME280;71262;-25.924;28.194;2023-09-07T00:40:24;85411.40;;;18.72;49.91
55486;BME280;71262;-25.924;28.194;2023-09-07T00:42:49;85413.90;;;18.71;51.54
55486;BME280;71262;-25.924;28.194;2023-09-07T00:45:15;85418.94;;;18.30;53.14
55486;BME280;71262;-25.924;28.194;2023-09-07T00:47:39;85420.88;;;18.58;53.44
55486;BME280;71262;-25.924;28.194;2023-09-07T00:50:05;85418.30;;;18.52;47.30
55486;BME280;71262;-25.924;28.194;2023-09-07T00:52:30;85419.01;;;18.33;48.96
55486;BME280;71262;-25.924;28.194;2023-09-07T00:54:55;85415.70;;;18.47;51.44
55486;BME280;71262;-25.924;28.194;2023-09-07T00:57:20;85413.61;;;18.47;52.98
55486;BME280;71262;-25.924;28.194;2023-09-07T00:59:45;85405.84;;;18.42;53.08
55486;BME280;71262;-25.924;28.194;2023-09-07T01:02:10;85401.34;;;18.73;47.98
55486;BME280;71262;-25.924;28.194;2023-09-07T01:04:35;85401.51;;;18.46;49.62
55486;BME280;71262;-25.924;28.194;2023-09-07T01:07:05;85400.44;;;18.50;51.82
55486;BME280;71262;-25.924;28.194;2023-09-07T01:09:28;85397.36;;;18.81;53.02
55486;BME280;71262;-25.924;28.194;2023-09-07T01:11:50;85393.98;;;18.48;53.43
55486;BME280;71262;-25.924;28.194;2023-09-07T01:14:16;85394.97;;;18.75;49.13
55486;BME280;71262;-25.924;28.194;2023-09-07T01:16:41;85389.59;;;18.29;49.61
55486;BME280;71262;-25.924;28.194;2023-09-07T01:19:06;85392.16;;;18.35;52.28
55486;BME280;71262;-25.924;28.194;2023-09-07T01:21:35;85390.07;;;18.25;53.29
55486;BME280;71262;-25.924;28.194;2023-09-07T01:23:56;85392.74;;;18.49;53.89
55486;BME280;71262;-25.924;28.194;2023-09-07T01:26:22;85388.51;;;18.57;51.86
55486;BME280;71262;-25.924;28.194;2023-09-07T01:28:46;85384.64;;;18.76;47.80
55486;BME280;71262;-25.924;28.194;2023-09-07T01:31:11;85380.70;;;18.47;50.70
55486;BME280;71262;-25.924;28.194;2023-09-07T01:33:36;85376.23;;;18.61;52.76
55486;BME280;71262;-25.924;28.194;2023-09-07T01:36:02;85374.71;;;18.52;53.75
55486;BME280;71262;-25.924;28.194;2023-09-07T01:38:27;85376.49;;;18.23;53.28
55486;BME280;71262;-25.924;28.194;2023-09-07T01:40:52;85372.74;;;18.49;48.21
55486;BME280;71262;-25.924;28.194;2023-09-07T01:43:17;85375.52;;;18.13;51.41
55486;BME280;71262;-25.924;28.194;2023-09-07T01:45:42;85376.01;;;18.20;53.56
55486;BME280;71262;-25.924;28.194;2023-09-07T01:48:11;85381.11;;;18.24;54.20
55486;BME280;71262;-25.924;28.194;2023-09-07T01:50:32;85387.88;;;18.41;54.00
55486;BME280;71262;-25.924;28.194;2023-09-07T01:52:57;85384.00;;;18.28;48.25
55486;BME280;71262;-25.924;28.194;2023-09-07T01:55:23;85389.86;;;18.52;50.16
55486;BME280;71262;-25.924;28.194;2023-09-07T01:57:48;85393.77;;;18.46;52.28
55486;BME280;71262;-25.924;28.194;2023-09-07T02:00:13;85393.64;;;18.30;53.64
55486;BME280;71262;-25.924;28.194;2023-09-07T02:02:38;85390.02;;;17.98;53.90
55486;BME280;71262;-25.924;28.194;2023-09-07T02:05:03;85396.97;;;18.24;49.74
55486;BME280;71262;-25.924;28.194;2023-09-07T02:07:28;85402.91;;;18.27;49.26
55486;BME280;71262;-25.924;28.194;2023-09-07T02:09:53;85407.17;;;17.90;52.09
55486;BME280;71262;-25.924;28.194;2023-09-07T02:12:18;85404.32;;;18.07;53.83
55486;BME280;71262;-25.924;28.194;2023-09-07T02:14:43;85406.80;;;18.09;53.93
55486;BME280;71262;-25.924;28.194;2023-09-07T02:17:09;85405.13;;;18.29;50.24
55486;BME280;71262;-25.924;28.194;2023-09-07T02:19:34;85406.20;;;18.18;49.36
55486;BME280;71262;-25.924;28.194;2023-09-07T02:21:59;85402.85;;;17.86;52.66
55486;BME280;71262;-25.924;28.194;2023-09-07T02:24:24;85404.83;;;18.13;53.84
55486;BME280;71262;-25.924;28.194;2023-09-07T02:26:50;85408.45;;;17.96;53.35
55486;BME280;71262;-25.924;28.194;2023-09-07T02:29:14;85408.86;;;18.14;50.39
55486;BME280;71262;-25.924;28.194;2023-09-07T02:31:39;85408.80;;;17.96;48.90
55486;BME280;71262;-25.924;28.194;2023-09-07T02:34:05;85410.11;;;18.15;51.84
55486;BME280;71262;-25.924;28.194;2023-09-07T02:36:30;85413.20;;;17.72;53.38
55486;BME280;71262;-25.924;28.194;2023-09-07T02:38:55;85417.78;;;18.14;53.30
55486;BME280;71262;-25.924;28.194;2023-09-07T02:41:20;85420.29;;;18.24;50.93
55486;BME280;71262;-25.924;28.194;2023-09-07T02:43:45;85418.86;;;18.26;48.54
55486;BME280;71262;-25.924;28.194;2023-09-07T02:46:10;85414.43;;;18.22;51.75
55486;BME280;71262;-25.924;28.194;2023-09-07T02:48:35;85416.21;;;18.20;53.91
55486;BME280;71262;-25.924;28.194;2023-09-07T02:51:00;85416.35;;;17.89;53.74
55486;BME280;71262;-25.924;28.194;2023-09-07T02:53:26;85417.96;;;17.86;53.27
55486;BME280;71262;-25.924;28.194;2023-09-07T02:55:51;85418.66;;;18.15;47.43
55486;BME280;71262;-25.924;28.194;2023-09-07T02:58:16;85418.93;;;18.09;50.95
55486;BME280;71262;-25.924;28.194;2023-09-07T03:00:45;85418.43;;;17.95;53.02
55486;BME280;71262;-25.924;28.194;2023-09-07T03:03:06;85417.81;;;17.79;53.85
55486;BME280;71262;-25.924;28.194;2023-09-07T03:05:31;85426.79;;;18.05;53.31
55486;BME280;71262;-25.924;28.194;2023-09-07T03:07:56;85428.96;;;17.97;48.65
55486;BME280;71262;-25.924;28.194;2023-09-07T03:10:22;85431.29;;;18.19;50.13
55486;BME280;71262;-25.924;28.194;2023-09-07T03:12:47;85439.58;;;18.26;52.52
55486;BME280;71262;-25.924;28.194;2023-09-07T03:15:12;85436.62;;;18.13;53.46
55486;BME280;71262;-25.924;28.194;2023-09-07T03:17:37;85435.77;;;17.87;53.52
55486;BME280;71262;-25.924;28.194;2023-09-07T03:20:02;85439.96;;;18.03;52.43
55486;BME280;71262;-25.924;28.194;2023-09-07T03:22:27;85435.49;;;17.82;47.66
55486;BME280;71262;-25.924;28.194;2023-09-07T03:24:52;85438.35;;;18.24;51.06
55486;BME280;71262;-25.924;28.194;2023-09-07T03:27:18;85441.43;;;18.02;52.99
55486;BME280;71262;-25.924;28.194;2023-09-07T03:29:43;85444.27;;;17.93;53.66
55486;BME280;71262;-25.924;28.194;2023-09-07T03:32:09;85450.35;;;18.07;53.12
55486;BME280;71262;-25.924;28.194;2023-09-07T03:34:33;85451.71;;;17.68;50.67
55486;BME280;71262;-25.924;28.194;2023-09-07T03:36:58;85451.25;;;17.87;49.43
55486;BME280;71262;-25.924;28.194;2023-09-07T03:39:23;85458.78;;;17.97;48.72
55486;BME280;71262;-25.924;28.194;2023-09-07T03:41:49;85456.77;;;18.40;48.41
55486;BME280;71262;-25.924;28.194;2023-09-07T03:44:14;85455.57;;;18.33;48.10
55486;BME280;71262;-25.924;28.194;2023-09-07T03:46:40;85462.11;;;18.52;47.70
55486;BME280;71262;-25.924;28.194;2023-09-07T03:49:05;85461.04;;;18.59;47.50
55486;BME280;71262;-25.924;28.194;2023-09-07T03:51:30;85464.53;;;18.67;47.33
55486;BME280;71262;-25.924;28.194;2023-09-07T03:53:55;85478.13;;;18.54;47.11
55486;BME280;71262;-25.924;28.194;2023-09-07T03:56:20;85481.02;;;18.80;46.99
55486;BME280;71262;-25.924;28.194;2023-09-07T03:58:46;85480.32;;;18.83;46.79
55486;BME280;71262;-25.924;28.194;2023-09-07T04:01:11;85480.69;;;18.92;46.50
55486;BME280;71262;-25.924;28.194;2023-09-07T04:03:36;85478.81;;;18.94;46.38
55486;BME280;71262;-25.924;28.194;2023-09-07T04:06:01;85487.01;;;19.01;46.22
55486;BME280;71262;-25.924;28.194;2023-09-07T04:08:26;85488.46;;;19.02;46.00
55486;BME280;71262;-25.924;28.194;2023-09-07T04:10:51;85497.56;;;19.12;45.72
55486;BME280;71262;-25.924;28.194;2023-09-07T04:13:16;85485.24;;;19.27;45.32
55486;BME280;71262;-25.924;28.194;2023-09-07T04:15:43;85493.36;;;19.02;45.34
55486;BME280;71262;-25.924;28.194;2023-09-07T04:18:07;85491.40;;;19.28;45.20
55486;BME280;71262;-25.924;28.194;2023-09-07T04:20:32;85506.13;;;19.25;45.32
55486;BME280;71262;-25.924;28.194;2023-09-07T04:22:57;85498.61;;;19.29;45.31
55486;BME280;71262;-25.924;28.194;2023-09-07T04:25:23;85502.23;;;19.32;45.25
55486;BME280;71262;-25.924;28.194;2023-09-07T04:27:48;85493.38;;;19.12;45.28
55486;BME280;71262;-25.924;28.194;2023-09-07T04:30:13;85508.90;;;19.17;45.20
55486;BME280;71262;-25.924;28.194;2023-09-07T04:32:39;85505.76;;;19.16;45.36
55486;BME280;71262;-25.924;28.194;2023-09-07T04:35:05;85508.88;;;18.98;45.40
55486;BME280;71262;-25.924;28.194;2023-09-07T04:37:29;85506.04;;;19.24;45.43
55486;BME280;71262;-25.924;28.194;2023-09-07T04:39:54;85508.53;;;19.07;45.53
55486;BME280;71262;-25.924;28.194;2023-09-07T04:42:20;85503.68;;;19.57;45.63
55486;BME280;71262;-25.924;28.194;2023-09-07T04:44:46;85508.51;;;19.46;45.64
55486;BME280;71262;-25.924;28.194;2023-09-07T04:47:10;85508.16;;;19.28;45.82
55486;BME280;71262;-25.924;28.194;2023-09-07T04:49:35;85507.53;;;19.86;45.85
55486;BME280;71262;-25.924;28.194;2023-09-07T04:52:00;85504.69;;;19.50;46.00
55486;BME280;71262;-25.924;28.194;2023-09-07T04:54:25;85501.76;;;19.62;46.23
55486;BME280;71262;-25.924;28.194;2023-09-07T04:56:50;85502.38;;;19.99;46.48
55486;BME280;71262;-25.924;28.194;2023-09-07T04:59:16;85507.39;;;20.06;46.69
55486;BME280;71262;-25.924;28.194;2023-09-07T05:01:41;85509.62;;;19.90;47.10
55486;BME280;71262;-25.924;28.194;2023-09-07T05:04:06;85514.90;;;19.57;47.66
55486;BME280;71262;-25.924;28.194;2023-09-07T05:06:31;85522.19;;;19.72;47.83
55486;BME280;71262;-25.924;28.194;2023-09-07T05:08:57;85520.25;;;19.98;48.12
55486;BME280;71262;-25.924;28.194;2023-09-07T05:11:22;85519.00;;;20.14;48.07
55486;BME280;71262;-25.924;28.194;2023-09-07T05:13:47;85527.17;;;20.29;47.78
55486;BME280;71262;-25.924;28.194;2023-09-07T05:16:13;85521.80;;;20.39;47.75
55486;BME280;71262;-25.924;28.194;2023-09-07T05:18:37;85522.23;;;20.43;47.70
55486;BME280;71262;-25.924;28.194;2023-09-07T05:23:28;85529.77;;;20.42;47.21
55486;BME280;71262;-25.924;28.194;2023-09-07T05:25:54;85533.76;;;20.35;46.90
55486;BME280;71262;-25.924;28.194;2023-09-07T05:28:19;85534.92;;;20.44;46.90
55486;BME280;71262;-25.924;28.194;2023-09-07T05:30:43;85535.42;;;20.47;46.26
55486;BME280;71262;-25.924;28.194;2023-09-07T05:33:09;85541.13;;;20.70;46.03
55486;BME280;71262;-25.924;28.194;2023-09-07T05:35:33;85540.84;;;21.20;45.28
55486;BME280;71262;-25.924;28.194;2023-09-07T05:37:59;85539.91;;;21.12;45.06
55486;BME280;71262;-25.924;28.194;2023-09-07T05:40:23;85540.42;;;21.16;44.54
55486;BME280;71262;-25.924;28.194;2023-09-07T05:42:48;85543.47;;;21.46;44.58
55486;BME280;71262;-25.924;28.194;2023-09-07T05:45:13;85546.85;;;21.35;44.45
55486;BME280;71262;-25.924;28.194;2023-09-07T05:47:40;85550.99;;;21.43;44.23
55486;BME280;71262;-25.924;28.194;2023-09-07T05:50:06;85557.05;;;21.37;44.41
55486;BME280;71262;-25.924;28.194;2023-09-07T05:52:31;85550.71;;;21.66;44.59
55486;BME280;71262;-25.924;28.194;2023-09-07T05:54:57;85543.13;;;21.57;44.38
55486;BME280;71262;-25.924;28.194;2023-09-07T05:57:23;85546.99;;;21.88;45.27
55486;BME280;71262;-25.924;28.194;2023-09-07T05:59:48;85544.99;;;21.80;45.12
55486;BME280;71262;-25.924;28.194;2023-09-07T06:02:14;85553.63;;;22.03;45.94
55486;BME280;71262;-25.924;28.194;2023-09-07T06:04:40;85551.02;;;22.06;46.88
55486;BME280;71262;-25.924;28.194;2023-09-07T06:07:06;85557.48;;;22.32;46.14
55486;BME280;71262;-25.924;28.194;2023-09-07T06:09:33;85552.44;;;21.98;46.88
55486;BME280;71262;-25.924;28.194;2023-09-07T06:11:58;85555.70;;;21.94;47.29
55486;BME280;71262;-25.924;28.194;2023-09-07T06:14:24;85561.10;;;22.32;46.38
55486;BME280;71262;-25.924;28.194;2023-09-07T06:16:49;85567.85;;;22.28;47.18
55486;BME280;71262;-25.924;28.194;2023-09-07T06:19:15;85567.07;;;22.37;47.01
55486;BME280;71262;-25.924;28.194;2023-09-07T06:21:41;85567.60;;;22.43;47.48
55486;BME280;71262;-25.924;28.194;2023-09-07T06:24:07;85569.57;;;21.85;47.82
55486;BME280;71262;-25.924;28.194;2023-09-07T06:26:33;85574.23;;;22.92;46.30
55486;BME280;71262;-25.924;28.194;2023-09-07T06:28:59;85580.03;;;22.93;48.47
55486;BME280;71262;-25.924;28.194;2023-09-07T06:31:24;85588.65;;;22.89;48.43
55486;BME280;71262;-25.924;28.194;2023-09-07T06:33:50;85585.35;;;22.79;48.39
55486;BME280;71262;-25.924;28.194;2023-09-07T06:36:15;85582.11;;;22.57;47.59
55486;BME280;71262;-25.924;28.194;2023-09-07T06:38:41;85579.42;;;22.93;47.86
55486;BME280;71262;-25.924;28.194;2023-09-07T06:41:06;85585.22;;;22.77;48.46
55486;BME280;71262;-25.924;28.194;2023-09-07T06:43:31;85580.94;;;22.98;48.34
55486;BME280;71262;-25.924;28.194;2023-09-07T06:46:05;85581.27;;;22.76;48.15
55486;BME280;71262;-25.924;28.194;2023-09-07T06:48:22;85583.63;;;22.71;46.74
55486;BME280;71262;-25.924;28.194;2023-09-07T06:50:48;85582.15;;;22.55;43.06
55486;BME280;71262;-25.924;28.194;2023-09-07T06:53:13;85585.15;;;22.41;40.73
55486;BME280;71262;-25.924;28.194;2023-09-07T06:55:38;85584.75;;;22.42;38.00
55486;BME280;71262;-25.924;28.194;2023-09-07T06:58:04;85587.34;;;22.68;36.98
55486;BME280;71262;-25.924;28.194;2023-09-07T07:00:30;85590.06;;;22.46;31.34
55486;BME280;71262;-25.924;28.194;2023-09-07T07:02:54;85592.59;;;22.50;33.57
55486;BME280;71262;-25.924;28.194;2023-09-07T07:05:20;85596.41;;;22.73;33.37
55486;BME280;71262;-25.924;28.194;2023-09-07T07:07:45;85596.08;;;22.79;32.73
55486;BME280;71262;-25.924;28.194;2023-09-07T07:10:10;85594.63;;;22.64;32.13
55486;BME280;71262;-25.924;28.194;2023-09-07T07:12:36;85597.41;;;22.63;30.27
55486;BME280;71262;-25.924;28.194;2023-09-07T07:15:01;85597.73;;;22.54;30.69
55486;BME280;71262;-25.924;28.194;2023-09-07T07:17:27;85597.99;;;22.53;31.26
55486;BME280;71262;-25.924;28.194;2023-09-07T07:19:52;85594.84;;;22.47;31.70
55486;BME280;71262;-25.924;28.194;2023-09-07T07:22:17;85592.07;;;22.48;30.31
55486;BME280;71262;-25.924;28.194;2023-09-07T07:24:42;85600.22;;;22.97;29.86
55486;BME280;71262;-25.924;28.194;2023-09-07T07:27:07;85603.47;;;22.98;31.16
55486;BME280;71262;-25.924;28.194;2023-09-07T07:29:33;85599.85;;;22.61;28.48
55486;BME280;71262;-25.924;28.194;2023-09-07T07:31:58;85597.57;;;22.65;29.80
55486;BME280;71262;-25.924;28.194;2023-09-07T07:34:24;85596.51;;;22.94;30.52
55486;BME280;71262;-25.924;28.194;2023-09-07T07:36:50;85594.37;;;23.03;29.46
55486;BME280;71262;-25.924;28.194;2023-09-07T07:39:23;85595.82;;;23.02;30.22
55486;BME280;71262;-25.924;28.194;2023-09-07T07:41:41;85593.19;;;23.32;29.60
55486;BME280;71262;-25.924;28.194;2023-09-07T07:44:06;85602.11;;;22.89;30.79
55486;BME280;71262;-25.924;28.194;2023-09-07T07:46:32;85597.63;;;22.98;30.38
55486;BME280;71262;-25.924;28.194;2023-09-07T07:48:58;85597.20;;;22.76;31.19
55486;BME280;71262;-25.924;28.194;2023-09-07T07:51:24;85592.56;;;23.12;31.17
55486;BME280;71262;-25.924;28.194;2023-09-07T07:53:50;85590.95;;;23.37;31.15
55486;BME280;71262;-25.924;28.194;2023-09-07T07:56:17;85586.91;;;23.72;30.39
55486;BME280;71262;-25.924;28.194;2023-09-07T07:58:41;85583.89;;;23.27;32.01
55486;BME280;71262;-25.924;28.194;2023-09-07T08:01:15;85584.89;;;23.31;30.67
55486;BME280;71262;-25.924;28.194;2023-09-07T08:03:32;85593.44;;;23.06;30.43
55486;BME280;71262;-25.924;28.194;2023-09-07T08:05:57;85594.74;;;23.38;31.72
55486;BME280;71262;-25.924;28.194;2023-09-07T08:08:23;85589.81;;;23.20;29.83
55486;BME280;71262;-25.924;28.194;2023-09-07T08:10:49;85585.85;;;23.44;31.45
55486;BME280;71262;-25.924;28.194;2023-09-07T08:13:15;85581.76;;;23.39;32.04
55486;BME280;71262;-25.924;28.194;2023-09-07T08:15:41;85581.92;;;23.41;31.76
55486;BME280;71262;-25.924;28.194;2023-09-07T08:18:06;85584.63;;;23.40;30.49
55486;BME280;71262;-25.924;28.194;2023-09-07T08:20:33;85588.14;;;23.46;32.22
55486;BME280;71262;-25.924;28.194;2023-09-07T08:22:58;85581.50;;;23.49;32.04
55486;BME280;71262;-25.924;28.194;2023-09-07T08:25:24;85578.95;;;23.26;31.27
55486;BME280;71262;-25.924;28.194;2023-09-07T08:27:50;85573.46;;;23.54;32.40
55486;BME280;71262;-25.924;28.194;2023-09-07T08:30:17;85572.95;;;23.58;31.45
55486;BME280;71262;-25.924;28.194;2023-09-07T08:32:41;85574.21;;;23.59;32.42
55486;BME280;71262;-25.924;28.194;2023-09-07T08:35:09;85577.15;;;23.57;32.22
55486;BME280;71262;-25.924;28.194;2023-09-07T08:37:33;85576.41;;;23.62;31.49
55486;BME280;71262;-25.924;28.194;2023-09-07T08:39:59;85573.21;;;23.61;32.38
55486;BME280;71262;-25.924;28.194;2023-09-07T08:42:24;85570.67;;;23.57;32.29
55486;BME280;71262;-25.924;28.194;2023-09-07T08:44:52;85563.17;;;23.60;32.48
55486;BME280;71262;-25.924;28.194;2023-09-07T08:47:17;85563.94;;;23.65;31.32
55486;BME280;71262;-25.924;28.194;2023-09-07T08:49:42;85564.19;;;23.68;32.28
55486;BME280;71262;-25.924;28.194;2023-09-07T08:52:08;85561.72;;;23.66;32.05
55486;BME280;71262;-25.924;28.194;2023-09-07T08:54:34;85559.67;;;23.71;32.28
55486;BME280;71262;-25.924;28.194;2023-09-07T08:57:01;85558.02;;;23.45;32.31
55486;BME280;71262;-25.924;28.194;2023-09-07T08:59:25;85553.90;;;23.75;31.69
55486;BME280;71262;-25.924;28.194;2023-09-07T09:01:51;85549.60;;;23.79;32.29
55486;BME280;71262;-25.924;28.194;2023-09-07T09:04:17;85546.10;;;23.75;31.22
55486;BME280;71262;-25.924;28.194;2023-09-07T09:06:43;85548.14;;;23.45;31.15
55486;BME280;71262;-25.924;28.194;2023-09-07T09:09:08;85542.19;;;23.80;30.85
55486;BME280;71262;-25.924;28.194;2023-09-07T09:11:34;85543.53;;;23.87;31.27
55486;BME280;71262;-25.924;28.194;2023-09-07T09:14:00;85535.53;;;23.76;32.61
55486;BME280;71262;-25.924;28.194;2023-09-07T09:16:26;85533.55;;;23.79;32.10
55486;BME280;71262;-25.924;28.194;2023-09-07T09:18:53;85537.99;;;23.85;31.55
55486;BME280;71262;-25.924;28.194;2023-09-07T09:21:18;85535.26;;;23.75;32.01
55486;BME280;71262;-25.924;28.194;2023-09-07T09:23:44;85534.30;;;23.78;32.15
55486;BME280;71262;-25.924;28.194;2023-09-07T09:26:09;85529.13;;;23.77;32.52
55486;BME280;71262;-25.924;28.194;2023-09-07T09:28:35;85521.29;;;23.75;31.35
55486;BME280;71262;-25.924;28.194;2023-09-07T09:31:02;85519.42;;;23.80;32.00
55486;BME280;71262;-25.924;28.194;2023-09-07T09:33:26;85517.88;;;24.25;30.76
55486;BME280;71262;-25.924;28.194;2023-09-07T09:35:53;85515.36;;;23.62;30.42
55486;BME280;71262;-25.924;28.194;2023-09-07T09:38:19;85510.93;;;23.74;31.28
55486;BME280;71262;-25.924;28.194;2023-09-07T09:40:44;85506.94;;;23.71;31.28
55486;BME280;71262;-25.924;28.194;2023-09-07T09:43:09;85505.56;;;24.28;30.24
55486;BME280;71262;-25.924;28.194;2023-09-07T09:45:35;85502.11;;;23.71;30.53
55486;BME280;71262;-25.924;28.194;2023-09-07T09:48:02;85493.82;;;23.54;30.39
55486;BME280;71262;-25.924;28.194;2023-09-07T09:50:27;85491.54;;;23.70;30.50
55486;BME280;71262;-25.924;28.194;2023-09-07T09:52:53;85489.42;;;23.91;30.65
55486;BME280;71262;-25.924;28.194;2023-09-07T09:55:19;85486.56;;;23.71;30.51
55486;BME280;71262;-25.924;28.194;2023-09-07T09:57:44;85481.97;;;23.87;30.45
55486;BME280;71262;-25.924;28.194;2023-09-07T10:00:11;85477.93;;;23.57;30.45
55486;BME280;71262;-25.924;28.194;2023-09-07T10:02:37;85478.42;;;23.95;30.72
55486;BME280;71262;-25.924;28.194;2023-09-07T10:05:01;85478.04;;;23.38;30.70
55486;BME280;71262;-25.924;28.194;2023-09-07T10:07:39;85474.98;;;23.68;30.43
55486;BME280;71262;-25.924;28.194;2023-09-07T10:09:50;85474.18;;;23.53;32.22
55486;BME280;71262;-25.924;28.194;2023-09-07T10:12:16;85470.70;;;23.43;30.64
55486;BME280;71262;-25.924;28.194;2023-09-07T10:14:41;85466.98;;;23.41;30.63
55486;BME280;71262;-25.924;28.194;2023-09-07T10:17:06;85463.59;;;23.55;30.87
55486;BME280;71262;-25.924;28.194;2023-09-07T10:19:30;85457.84;;;23.78;31.09
55486;BME280;71262;-25.924;28.194;2023-09-07T10:21:57;85453.32;;;23.44;31.02
55486;BME280;71262;-25.924;28.194;2023-09-07T10:24:25;85444.73;;;23.51;31.35
55486;BME280;71262;-25.924;28.194;2023-09-07T10:29:12;85434.83;;;23.34;31.55
55486;BME280;71262;-25.924;28.194;2023-09-07T10:31:39;85432.65;;;23.14;31.73
55486;BME280;71262;-25.924;28.194;2023-09-07T10:34:08;85429.55;;;23.61;31.78
55486;BME280;71262;-25.924;28.194;2023-09-07T10:36:30;85425.20;;;23.28;31.85
55486;BME280;71262;-25.924;28.194;2023-09-07T10:38:56;85420.04;;;23.27;32.00
55486;BME280;71262;-25.924;28.194;2023-09-07T10:41:22;85419.78;;;23.21;32.10
55486;BME280;71262;-25.924;28.194;2023-09-07T10:43:49;85417.72;;;23.60;32.27
55486;BME280;71262;-25.924;28.194;2023-09-07T10:46:13;85414.78;;;23.11;32.37
55486;BME280;71262;-25.924;28.194;2023-09-07T10:48:39;85417.20;;;23.08;32.50
55486;BME280;71262;-25.924;28.194;2023-09-07T10:51:04;85414.02;;;22.99;32.67
55486;BME280;71262;-25.924;28.194;2023-09-07T10:53:31;85408.73;;;22.97;32.77
55486;BME280;71262;-25.924;28.194;2023-09-07T10:55:59;85402.55;;;22.97;32.87
55486;BME280;71262;-25.924;28.194;2023-09-07T10:58:27;85398.95;;;23.06;32.83
55486;BME280;71262;-25.924;28.194;2023-09-07T11:00:48;85394.12;;;23.23;33.08
55486;BME280;71262;-25.924;28.194;2023-09-07T11:03:14;85387.20;;;22.92;33.12
55486;BME280;71262;-25.924;28.194;2023-09-07T11:05:39;85380.20;;;23.12;33.26
55486;BME280;71262;-25.924;28.194;2023-09-07T11:08:06;85383.36;;;22.93;33.32
55486;BME280;71262;-25.924;28.194;2023-09-07T11:10:34;85389.43;;;22.95;33.30
55486;BME280;71262;-25.924;28.194;2023-09-07T11:12:57;85381.99;;;22.89;33.37
55486;BME280;71262;-25.924;28.194;2023-09-07T11:15:23;85370.81;;;22.84;33.50
55486;BME280;71262;-25.924;28.194;2023-09-07T11:17:49;85380.10;;;23.19;33.42
55486;BME280;71262;-25.924;28.194;2023-09-07T11:20:14;85379.98;;;23.15;33.60
55486;BME280;71262;-25.924;28.194;2023-09-07T11:22:40;85382.13;;;22.88;33.58
55486;BME280;71262;-25.924;28.194;2023-09-07T11:25:06;85379.05;;;23.06;33.66
55486;BME280;71262;-25.924;28.194;2023-09-07T11:27:32;85374.65;;;22.96;33.84
55486;BME280;71262;-25.924;28.194;2023-09-07T11:29:58;85372.78;;;23.22;33.87
55486;BME280;71262;-25.924;28.194;2023-09-07T11:32:24;85373.96;;;23.21;33.97
55486;BME280;71262;-25.924;28.194;2023-09-07T11:34:51;85366.95;;;23.14;33.86
55486;BME280;71262;-25.924;28.194;2023-09-07T11:37:15;85363.64;;;23.25;33.99
55486;BME280;71262;-25.924;28.194;2023-09-07T11:39:41;85354.09;;;22.76;34.07
55486;BME280;71262;-25.924;28.194;2023-09-07T11:42:07;85350.69;;;22.89;34.25
55486;BME280;71262;-25.924;28.194;2023-09-07T11:44:33;85348.33;;;23.01;34.20
55486;BME280;71262;-25.924;28.194;2023-09-07T11:46:59;85343.22;;;23.30;34.18
55486;BME280;71262;-25.924;28.194;2023-09-07T11:49:24;85343.77;;;23.25;34.26
55486;BME280;71262;-25.924;28.194;2023-09-07T11:51:50;85343.49;;;23.14;34.42
55486;BME280;71262;-25.924;28.194;2023-09-07T11:54:16;85338.44;;;23.12;34.55
55486;BME280;71262;-25.924;28.194;2023-09-07T11:56:42;85338.90;;;22.60;34.62
55486;BME280;71262;-25.924;28.194;2023-09-07T11:59:08;85333.05;;;22.97;34.55
55486;BME280;71262;-25.924;28.194;2023-09-07T12:01:34;85327.32;;;23.15;34.62
55486;BME280;71262;-25.924;28.194;2023-09-07T12:03:59;85324.03;;;22.82;34.78
55486;BME280;71262;-25.924;28.194;2023-09-07T12:06:25;85319.42;;;23.15;34.74
55486;BME280;71262;-25.924;28.194;2023-09-07T12:08:59;85318.68;;;22.84;34.87
55486;BME280;71262;-25.924;28.194;2023-09-07T12:11:17;85317.06;;;23.02;34.97
55486;BME280;71262;-25.924;28.194;2023-09-07T12:13:43;85310.52;;;22.72;35.05
55486;BME280;71262;-25.924;28.194;2023-09-07T12:16:08;85307.31;;;22.90;35.14
55486;BME280;71262;-25.924;28.194;2023-09-07T12:18:34;85305.69;;;22.90;35.18
55486;BME280;71262;-25.924;28.194;2023-09-07T12:21:00;85305.20;;;22.48;35.13
55486;BME280;71262;-25.924;28.194;2023-09-07T12:23:26;85298.37;;;22.82;35.08
55486;BME280;71262;-25.924;28.194;2023-09-07T12:25:52;85294.06;;;22.99;35.17
55486;BME280;71262;-25.924;28.194;2023-09-07T12:28:18;85300.54;;;22.90;35.30
55486;BME280;71262;-25.924;28.194;2023-09-07T12:30:43;85295.93;;;22.95;35.29
55486;BME280;71262;-25.924;28.194;2023-09-07T12:33:10;85292.66;;;22.80;35.26
55486;BME280;71262;-25.924;28.194;2023-09-07T12:35:35;85290.50;;;22.79;35.28